createdAt,value
2023-04-25T00:00:30.100Z,14.65
2023-04-25T00:02:57.885Z,14.74
2023-04-25T00:05:24.494Z,14.76
2023-04-25T00:07:50.931Z,14.64
2023-04-25T00:10:17.404Z,14.73
2023-04-25T00:12:43.794Z,14.71
2023-04-25T00:15:10.222Z,14.79
2023-04-25T00:17:36.728Z,14.79
2023-04-25T00:20:03.099Z,14.78
2023-04-25T00:22:29.493Z,14.75
2023-04-25T00:24:55.891Z,14.68
2023-04-25T00:27:22.326Z,14.75
2023-04-25T00:29:48.722Z,14.80
2023-04-25T00:32:15.092Z,14.76
2023-04-25T00:34:41.529Z,14.68
2023-04-25T00:37:07.925Z,14.66
2023-04-25T00:39:34.294Z,14.67
2023-04-25T00:42:00.728Z,14.62
2023-04-25T00:44:27.114Z,14.52
2023-04-25T00:46:53.592Z,14.60
2023-04-25T00:49:20.005Z,14.64
2023-04-25T00:51:46.411Z,14.52
2023-04-25T00:54:12.806Z,14.59
2023-04-25T00:56:39.212Z,14.54
2023-04-25T00:59:05.654Z,14.53
2023-04-25T01:01:32.050Z,14.58
2023-04-25T01:03:58.533Z,14.60
2023-04-25T01:06:24.933Z,14.60
2023-04-25T01:08:51.327Z,14.59
2023-04-25T01:11:17.777Z,14.54
2023-04-25T01:13:44.159Z,14.55
2023-04-25T01:16:10.685Z,14.53
2023-04-25T01:18:37.065Z,14.47
2023-04-25T01:21:03.433Z,14.50
2023-04-25T01:23:29.801Z,14.46
2023-04-25T01:25:56.160Z,13.92
2023-04-25T01:28:22.530Z,13.89
2023-04-25T01:30:48.985Z,14.07
2023-04-25T01:33:15.405Z,14.14
2023-04-25T01:35:41.797Z,14.14
2023-04-25T01:38:08.228Z,14.17
2023-04-25T01:40:34.586Z,14.22
2023-04-25T01:43:00.993Z,14.24
2023-04-25T01:45:27.432Z,14.20
2023-04-25T01:47:53.888Z,14.14
2023-04-25T01:50:20.425Z,14.28
2023-04-25T01:52:46.827Z,14.40
2023-04-25T01:55:13.219Z,14.33
2023-04-25T01:57:39.606Z,14.20
2023-04-25T02:00:08.754Z,14.21
2023-04-25T02:02:35.242Z,14.17
2023-04-25T02:05:01.689Z,13.78
2023-04-25T02:07:28.017Z,13.19
2023-04-25T02:09:54.434Z,12.46
2023-04-25T02:12:20.816Z,12.41
2023-04-25T02:14:47.179Z,12.68
2023-04-25T02:19:39.847Z,12.88
2023-04-25T02:22:06.187Z,12.96
2023-04-25T02:24:32.624Z,13.03
2023-04-25T02:26:59.089Z,13.05
2023-04-25T02:29:25.538Z,13.06
2023-04-25T02:31:51.982Z,13.15
2023-04-25T02:34:18.416Z,13.23
2023-04-25T02:36:44.879Z,13.27
2023-04-25T02:39:11.261Z,13.28
2023-04-25T02:41:37.656Z,13.27
2023-04-25T02:44:04.045Z,13.28
2023-04-25T02:46:39.090Z,13.32
2023-04-25T02:49:06.247Z,13.36
2023-04-25T02:51:32.614Z,13.35
2023-04-25T02:53:59.046Z,13.24
2023-04-25T02:56:25.444Z,12.82
2023-04-25T02:58:51.809Z,12.68
2023-04-25T03:01:18.219Z,12.54
2023-04-25T03:03:44.716Z,12.38
2023-04-25T03:06:11.218Z,12.13
2023-04-25T03:08:37.588Z,12.19
2023-04-25T03:11:03.997Z,11.98
2023-04-25T03:13:30.405Z,11.79
2023-04-25T03:15:56.831Z,11.54
2023-04-25T03:18:23.225Z,11.45
2023-04-25T03:20:49.578Z,11.35
2023-04-25T03:23:15.948Z,11.46
2023-04-25T03:25:43.364Z,11.54
2023-04-25T03:28:09.729Z,11.65
2023-04-25T03:30:36.125Z,11.77
2023-04-25T03:33:02.604Z,11.83
2023-04-25T03:35:29.003Z,11.83
2023-04-25T03:37:55.418Z,11.79
2023-04-25T03:40:21.812Z,11.81
2023-04-25T03:42:48.184Z,11.87
2023-04-25T03:45:14.533Z,11.92
2023-04-25T03:47:40.923Z,11.98
2023-04-25T03:50:07.279Z,12.00
2023-04-25T03:52:33.677Z,12.00
2023-04-25T03:55:00.057Z,11.98
2023-04-25T03:57:26.481Z,11.98
2023-04-25T03:59:52.858Z,12.01
2023-04-25T04:02:19.283Z,12.05
2023-04-25T04:04:45.930Z,12.10
2023-04-25T04:07:12.512Z,12.16
2023-04-25T04:09:38.893Z,12.21
2023-04-25T04:12:05.285Z,12.24
2023-04-25T04:14:31.631Z,12.26
2023-04-25T04:16:57.995Z,12.21
2023-04-25T04:19:24.383Z,12.09
2023-04-25T04:21:50.712Z,11.95
2023-04-25T04:24:17.055Z,11.91
2023-04-25T04:26:43.366Z,11.93
2023-04-25T04:29:09.689Z,11.88
2023-04-25T04:31:36.104Z,11.85
2023-04-25T04:34:02.552Z,11.86
2023-04-25T04:36:28.897Z,11.87
2023-04-25T04:38:55.288Z,11.87
2023-04-25T04:41:21.696Z,11.93
2023-04-25T04:43:48.326Z,11.90
2023-04-25T04:46:14.955Z,11.75
2023-04-25T04:48:41.317Z,11.67
2023-04-25T04:51:07.671Z,11.68
2023-04-25T04:53:34.033Z,11.67
2023-04-25T04:56:00.409Z,11.63
2023-04-25T04:58:26.751Z,11.64
2023-04-25T05:00:53.136Z,11.59
2023-04-25T05:03:19.602Z,11.61
2023-04-25T05:05:46.032Z,11.67
2023-04-25T05:08:12.378Z,11.69
2023-04-25T05:10:38.742Z,11.66
2023-04-25T05:13:05.160Z,11.63
2023-04-25T05:15:31.489Z,11.78
2023-04-25T05:17:57.890Z,11.86
2023-04-25T05:20:24.414Z,11.86
2023-04-25T05:22:50.814Z,11.84
2023-04-25T05:25:17.188Z,11.80
2023-04-25T05:27:43.576Z,11.91
2023-04-25T05:30:09.912Z,11.84
2023-04-25T05:32:36.302Z,11.88
2023-04-25T05:35:02.775Z,11.91
2023-04-25T05:37:29.177Z,12.03
2023-04-25T05:39:55.505Z,12.02
2023-04-25T05:42:21.855Z,12.11
2023-04-25T05:44:48.211Z,12.20
2023-04-25T05:47:14.544Z,12.08
2023-04-25T05:49:40.952Z,12.19
2023-04-25T05:52:07.400Z,12.21
2023-04-25T05:54:33.750Z,12.28
2023-04-25T05:57:00.132Z,12.35
2023-04-25T05:59:26.488Z,12.40
2023-04-25T06:01:52.892Z,12.44
2023-04-25T06:04:19.519Z,12.46
2023-04-25T06:06:46.025Z,12.19
2023-04-25T06:09:14.274Z,12.22
2023-04-25T06:11:40.895Z,12.32
2023-04-25T06:14:07.469Z,12.27
2023-04-25T06:16:33.934Z,12.34
2023-04-25T06:19:00.336Z,12.27
2023-04-25T06:21:26.775Z,12.37
2023-04-25T06:23:53.549Z,12.43
2023-04-25T06:26:20.106Z,12.43
2023-04-25T06:28:46.512Z,12.44
2023-04-25T06:31:12.919Z,12.23
2023-04-25T06:33:39.348Z,12.01
2023-04-25T06:36:05.778Z,11.93
2023-04-25T06:38:32.284Z,11.95
2023-04-25T06:40:58.628Z,11.82
2023-04-25T06:43:25.032Z,11.95
2023-04-25T06:45:51.427Z,12.06
2023-04-25T06:48:18.076Z,12.08
2023-04-25T06:50:44.573Z,12.12
2023-04-25T06:53:10.942Z,12.18
2023-04-25T06:55:37.542Z,12.20
2023-04-25T06:58:03.987Z,12.10
2023-04-25T07:00:30.618Z,12.24
2023-04-25T07:02:57.304Z,12.32
2023-04-25T07:05:23.989Z,12.34
2023-04-25T07:07:50.391Z,12.32
2023-04-25T07:10:16.768Z,12.31
2023-04-25T07:12:43.182Z,12.28
2023-04-25T07:15:09.653Z,12.26
2023-04-25T07:17:36.120Z,12.26
2023-04-25T07:20:03.822Z,12.13
2023-04-25T07:22:30.266Z,12.05
2023-04-25T07:24:56.703Z,11.99
2023-04-25T07:27:26.174Z,11.99
2023-04-25T07:29:52.623Z,12.04
2023-04-25T07:32:19.197Z,12.04
2023-04-25T07:34:45.682Z,12.09
2023-04-25T07:37:12.139Z,12.13
2023-04-25T07:39:38.677Z,12.02
2023-04-25T07:42:05.101Z,12.04
2023-04-25T07:44:31.521Z,12.18
2023-04-25T07:46:57.941Z,12.30
2023-04-25T07:49:24.357Z,12.36
2023-04-25T07:51:51.852Z,12.33
2023-04-25T07:54:18.418Z,12.39
2023-04-25T07:56:51.934Z,12.44
2023-04-25T07:59:19.573Z,12.41
2023-04-25T08:01:45.968Z,12.38
2023-04-25T08:04:12.464Z,12.42
2023-04-25T08:06:39.173Z,12.42
2023-04-25T08:09:05.649Z,12.43
2023-04-25T08:11:31.991Z,12.50
2023-04-25T08:13:58.320Z,12.62
2023-04-25T08:16:24.825Z,12.73
2023-04-25T08:18:51.501Z,12.76
2023-04-25T08:21:18.040Z,12.80
2023-04-25T08:23:44.383Z,12.76
2023-04-25T08:26:10.790Z,12.64
2023-04-25T08:28:37.175Z,12.66
2023-04-25T08:31:03.948Z,12.31
2023-04-25T08:33:30.389Z,12.41
2023-04-25T08:35:57.044Z,12.69
2023-04-25T08:38:23.468Z,12.58
2023-04-25T08:40:49.899Z,12.61
2023-04-25T08:43:16.425Z,13.00
2023-04-25T08:45:42.798Z,13.28
2023-04-25T08:48:09.194Z,13.34
2023-04-25T08:50:35.600Z,12.89
2023-04-25T08:53:02.027Z,12.92
2023-04-25T08:55:28.395Z,13.16
2023-04-25T08:57:54.884Z,13.32
2023-04-25T09:00:21.256Z,13.44
2023-04-25T09:02:47.800Z,13.40
2023-04-25T09:05:14.289Z,13.30
2023-04-25T09:07:40.755Z,13.51
2023-04-25T09:10:07.193Z,13.67
2023-04-25T09:12:33.559Z,13.85
2023-04-25T09:14:59.949Z,13.94
2023-04-25T09:17:26.415Z,13.55
2023-04-25T09:19:52.816Z,13.38
2023-04-25T09:22:19.273Z,13.38
2023-04-25T09:24:45.702Z,13.48
2023-04-25T09:27:13.088Z,13.56
2023-04-25T09:29:39.471Z,13.57
2023-04-25T09:32:05.945Z,13.53
2023-04-25T09:34:32.329Z,13.48
2023-04-25T09:36:59.767Z,13.48
2023-04-25T09:39:26.117Z,13.50
2023-04-25T09:41:52.518Z,13.55
2023-04-25T09:44:19.026Z,13.59
2023-04-25T09:46:45.668Z,13.61
2023-04-25T09:49:14.571Z,13.63
2023-04-25T09:51:40.919Z,13.50
2023-04-25T09:54:07.443Z,13.41
2023-04-25T09:56:33.903Z,13.14
2023-04-25T09:59:00.355Z,12.66
2023-04-25T10:01:26.793Z,12.45
2023-04-25T10:03:53.330Z,12.51
2023-04-25T10:06:19.776Z,12.18
2023-04-25T10:08:46.181Z,10.91
2023-04-25T10:11:12.521Z,10.36
2023-04-25T10:13:38.885Z,10.44
2023-04-25T10:16:05.355Z,10.49
2023-04-25T10:18:31.720Z,10.71
2023-04-25T10:20:58.776Z,10.88
2023-04-25T10:23:25.165Z,10.84
2023-04-25T10:25:51.532Z,10.75
2023-04-25T10:28:17.882Z,10.65
2023-04-25T10:30:44.227Z,10.76
2023-04-25T10:33:10.637Z,10.94
2023-04-25T10:35:37.046Z,11.02
2023-04-25T10:38:03.487Z,11.06
2023-04-25T10:40:29.917Z,11.17
2023-04-25T10:42:56.277Z,11.18
2023-04-25T10:45:23.969Z,11.27
2023-04-25T10:47:50.510Z,11.41
2023-04-25T10:50:16.908Z,11.56
2023-04-25T10:52:43.380Z,11.73
2023-04-25T10:55:09.878Z,11.80
2023-04-25T10:57:36.310Z,11.71
2023-04-25T11:00:02.723Z,11.74
2023-04-25T11:02:29.301Z,11.66
2023-04-25T11:04:55.831Z,11.95
2023-04-25T11:07:22.233Z,12.01
2023-04-25T11:09:48.646Z,12.03
2023-04-25T11:12:14.997Z,12.08
2023-04-25T11:14:41.626Z,11.85
2023-04-25T11:17:08.138Z,11.85
2023-04-25T11:19:34.546Z,12.00
2023-04-25T11:22:01.015Z,12.14
2023-04-25T11:24:27.478Z,12.26
2023-04-25T11:26:53.901Z,12.31
2023-04-25T11:29:20.313Z,12.40
2023-04-25T11:31:46.874Z,12.51
2023-04-25T11:34:13.354Z,12.56
2023-04-25T11:36:39.759Z,12.66
2023-04-25T11:39:06.259Z,12.57
2023-04-25T11:41:32.753Z,12.64
2023-04-25T11:43:59.179Z,12.62
2023-04-25T11:46:25.634Z,12.72
2023-04-25T11:48:52.269Z,12.85
2023-04-25T11:51:18.877Z,12.96
2023-04-25T11:53:45.239Z,12.97
2023-04-25T11:56:11.619Z,13.02
2023-04-25T11:58:39.336Z,12.93
2023-04-25T12:01:05.716Z,13.11
2023-04-25T12:03:32.356Z,13.19
2023-04-25T12:05:59.112Z,13.22
2023-04-25T12:08:25.666Z,13.19
2023-04-25T12:10:52.021Z,13.23
2023-04-25T12:13:20.639Z,13.32
2023-04-25T12:15:47.066Z,13.46
2023-04-25T12:18:13.501Z,13.50
2023-04-25T12:20:39.962Z,13.74
2023-04-25T12:23:06.449Z,13.92
2023-04-25T12:25:32.839Z,14.05
2023-04-25T12:27:59.246Z,14.12
2023-04-25T12:30:25.585Z,14.08
2023-04-25T12:32:52.025Z,14.14
2023-04-25T12:35:18.473Z,14.27
2023-04-25T12:37:44.885Z,14.31
2023-04-25T12:40:11.243Z,14.34
2023-04-25T12:42:37.664Z,14.38
2023-04-25T12:45:04.045Z,14.38
2023-04-25T12:47:30.445Z,14.34
2023-04-25T12:49:56.816Z,14.34
2023-04-25T12:52:23.231Z,14.17
2023-04-25T12:54:49.772Z,14.17
2023-04-25T12:57:16.149Z,14.15
2023-04-25T12:59:42.878Z,14.14
2023-04-25T13:02:09.336Z,14.03
2023-04-25T13:04:35.782Z,13.97
2023-04-25T13:07:02.176Z,14.01
2023-04-25T13:09:28.533Z,14.14
2023-04-25T13:11:57.155Z,14.20
2023-04-25T13:14:24.859Z,14.24
2023-04-25T13:16:51.262Z,14.33
2023-04-25T13:19:17.624Z,14.37
2023-04-25T13:21:44.010Z,14.48
2023-04-25T13:24:10.421Z,14.57
2023-04-25T13:26:36.782Z,14.82
2023-04-25T13:29:03.104Z,14.86
2023-04-25T13:31:29.459Z,14.87
2023-04-25T13:33:55.960Z,15.01
2023-04-25T13:36:22.440Z,14.86
2023-04-25T13:38:49.254Z,14.70
2023-04-25T13:41:16.168Z,15.00
2023-04-25T13:43:42.565Z,15.19
2023-04-25T13:46:10.938Z,15.28
2023-04-25T13:48:47.319Z,15.31
2023-04-25T13:51:13.743Z,15.26
2023-04-25T13:53:40.152Z,15.30
2023-04-25T13:56:06.565Z,15.27
2023-04-25T13:58:32.933Z,15.00
2023-04-25T14:00:59.306Z,15.01
2023-04-25T14:03:25.733Z,15.17
2023-04-25T14:05:52.498Z,15.12
2023-04-25T14:08:18.876Z,15.22
2023-04-25T14:10:45.208Z,15.29
2023-04-25T14:13:11.541Z,15.24
2023-04-25T14:15:37.886Z,15.26
2023-04-25T14:18:04.294Z,15.35
2023-04-25T14:20:30.714Z,15.56
2023-04-25T14:22:57.155Z,15.58
2023-04-25T14:25:23.721Z,15.68
2023-04-25T14:27:50.250Z,15.62
2023-04-25T14:30:16.655Z,15.72
2023-04-25T14:32:43.034Z,15.73
2023-04-25T14:35:09.521Z,15.71
2023-04-25T14:37:35.913Z,15.65
2023-04-25T14:40:02.417Z,15.61
2023-04-25T14:42:28.825Z,15.64
2023-04-25T14:44:58.199Z,15.76
2023-04-25T14:47:24.552Z,15.69
2023-04-25T14:49:50.899Z,15.70
2023-04-25T14:52:17.258Z,15.53
2023-04-25T14:54:43.774Z,15.47
2023-04-25T14:57:10.145Z,15.14
2023-04-25T14:59:36.523Z,14.87
2023-04-25T15:02:02.967Z,14.85
2023-04-25T15:04:30.287Z,14.73
2023-04-25T15:06:57.152Z,14.82
2023-04-25T15:09:24.118Z,14.60
2023-04-25T15:11:50.798Z,14.67
2023-04-25T15:14:17.165Z,14.65
2023-04-25T15:16:43.580Z,14.79
2023-04-25T15:19:10.013Z,14.91
2023-04-25T15:21:36.380Z,14.86
2023-04-25T15:24:02.803Z,14.82
2023-04-25T15:26:29.201Z,14.95
2023-04-25T15:28:55.555Z,15.03
2023-04-25T15:31:21.938Z,15.03
2023-04-25T15:33:48.545Z,15.06
2023-04-25T15:36:15.063Z,14.93
2023-04-25T15:38:41.415Z,14.88
2023-04-25T15:41:07.800Z,14.85
2023-04-25T15:43:34.235Z,14.86
2023-04-25T15:46:00.679Z,14.88
2023-04-25T15:48:27.093Z,14.99
2023-04-25T15:50:53.455Z,15.11
2023-04-25T15:53:19.818Z,15.11
2023-04-25T15:55:49.258Z,15.14
2023-04-25T15:58:15.686Z,15.31
2023-04-25T16:00:42.176Z,15.69
2023-04-25T16:03:08.707Z,16.87
2023-04-25T16:05:35.292Z,19.04
2023-04-25T16:08:01.676Z,20.73
2023-04-25T16:10:28.081Z,22.37
2023-04-25T16:12:54.450Z,23.79
2023-04-25T16:15:20.886Z,25.07
2023-04-25T16:17:47.340Z,25.61
2023-04-25T16:20:13.747Z,25.58
2023-04-25T16:22:40.189Z,25.56
2023-04-25T16:25:06.586Z,26.00
2023-04-25T16:27:34.324Z,26.60
2023-04-25T16:30:00.809Z,26.84
2023-04-25T16:32:27.211Z,26.86
2023-04-25T16:34:53.611Z,26.75
2023-04-25T16:37:19.969Z,26.47
2023-04-25T16:39:46.335Z,25.54
2023-04-25T16:42:14.338Z,24.63
2023-04-25T16:44:40.779Z,23.05
2023-04-25T16:47:07.242Z,21.52
2023-04-25T16:49:33.717Z,19.78
2023-04-25T16:52:00.089Z,19.22
2023-04-25T16:54:26.501Z,18.89
2023-04-25T16:56:52.855Z,18.58
2023-04-25T16:59:19.268Z,18.33
2023-04-25T17:01:45.784Z,18.04
2023-04-25T17:04:12.264Z,17.93
2023-04-25T17:06:38.713Z,17.77
2023-04-25T17:09:05.066Z,17.75
2023-04-25T17:11:31.582Z,17.53
2023-04-25T17:13:57.971Z,17.27
2023-04-25T17:16:24.395Z,17.11
2023-04-25T17:18:51.082Z,17.02
2023-04-25T17:21:17.702Z,16.85
2023-04-25T17:23:44.103Z,16.73
2023-04-25T17:26:10.507Z,16.60
2023-04-25T17:28:36.894Z,16.54
2023-04-25T17:31:03.289Z,16.51
2023-04-25T17:33:29.700Z,16.36
2023-04-25T17:35:56.062Z,16.41
2023-04-25T17:38:22.447Z,16.46
2023-04-25T17:40:48.846Z,16.49
2023-04-25T17:43:15.207Z,16.50
2023-04-25T17:45:41.807Z,16.55
2023-04-25T17:48:08.257Z,16.53
2023-04-25T17:50:37.323Z,16.57
2023-04-25T17:53:03.730Z,16.55
2023-04-25T17:55:30.153Z,16.52
2023-04-25T17:57:56.555Z,16.44
2023-04-25T18:00:22.994Z,16.38
2023-04-25T18:02:49.377Z,16.29
2023-04-25T18:05:15.955Z,16.21
2023-04-25T18:07:42.366Z,16.09
2023-04-25T18:10:08.767Z,16.03
2023-04-25T18:12:37.094Z,16.02
2023-04-25T18:15:10.814Z,16.00
2023-04-25T18:17:37.268Z,15.94
2023-04-25T18:20:06.716Z,15.84
2023-04-25T18:22:33.110Z,15.59
2023-04-25T18:25:01.953Z,15.40
2023-04-25T18:27:28.376Z,15.25
2023-04-25T18:29:54.800Z,15.06
2023-04-25T18:32:22.724Z,14.99
2023-04-25T18:34:49.097Z,15.03
2023-04-25T18:37:15.461Z,15.03
2023-04-25T18:39:43.305Z,15.03
2023-04-25T18:42:09.796Z,14.98
2023-04-25T18:44:36.187Z,14.81
2023-04-25T18:47:02.598Z,14.70
2023-04-25T18:49:29.044Z,14.65
2023-04-25T18:51:55.616Z,14.57
2023-04-25T18:54:22.050Z,14.46
2023-04-25T18:56:48.461Z,14.42
2023-04-25T18:59:14.871Z,14.33
2023-04-25T19:01:41.280Z,14.32
2023-04-25T19:04:10.627Z,14.26
2023-04-25T19:06:37.247Z,14.22
2023-04-25T19:09:03.659Z,13.98
2023-04-25T19:11:30.107Z,14.08
2023-04-25T19:13:56.543Z,14.01
2023-04-25T19:16:23.052Z,13.98
2023-04-25T19:18:49.714Z,13.88
2023-04-25T19:21:16.245Z,13.82
2023-04-25T19:23:45.236Z,13.71
2023-04-25T19:26:11.629Z,13.57
2023-04-25T19:28:37.969Z,13.53
2023-04-25T19:31:04.412Z,13.51
2023-04-25T19:33:30.800Z,13.50
2023-04-25T19:35:57.232Z,13.42
2023-04-25T19:38:23.685Z,13.38
2023-04-25T19:40:50.062Z,13.44
2023-04-25T19:43:16.500Z,13.43
2023-04-25T19:45:42.915Z,13.39
2023-04-25T19:48:09.355Z,13.29
2023-04-25T19:50:35.767Z,13.29
2023-04-25T19:53:02.223Z,13.26
2023-04-25T19:55:28.666Z,13.24
2023-04-25T19:57:55.035Z,13.18
2023-04-25T20:00:21.462Z,13.21
2023-04-25T20:02:48.072Z,13.20
2023-04-25T20:05:14.693Z,13.15
2023-04-25T20:07:41.217Z,13.18
2023-04-25T20:10:07.590Z,13.06
2023-04-25T20:12:33.968Z,13.05
2023-04-25T20:15:00.356Z,13.01
2023-04-25T20:17:26.800Z,12.97
2023-04-25T20:19:53.221Z,13.00
2023-04-25T20:22:19.617Z,13.01
2023-04-25T20:24:46.061Z,13.04
2023-04-25T20:27:12.540Z,12.96
2023-04-25T20:29:38.938Z,12.95
2023-04-25T20:32:05.474Z,12.94
2023-04-25T20:34:31.853Z,12.92
2023-04-25T20:36:58.243Z,12.84
2023-04-25T20:39:24.624Z,12.81
2023-04-25T20:41:51.027Z,12.81
2023-04-25T20:44:17.379Z,12.74
2023-04-25T20:46:43.946Z,12.88
2023-04-25T20:49:10.306Z,12.88
2023-04-25T20:51:36.661Z,12.92
2023-04-25T20:54:03.060Z,12.86
2023-04-25T20:56:29.473Z,12.81
2023-04-25T20:58:55.835Z,12.73
2023-04-25T21:01:22.383Z,12.75
2023-04-25T21:03:49.027Z,12.73
2023-04-25T21:06:16.647Z,12.72
2023-04-25T21:08:43.017Z,12.72
2023-04-25T21:11:09.498Z,12.75
2023-04-25T21:13:36.017Z,12.79
2023-04-25T21:16:02.592Z,12.86
2023-04-25T21:18:29.058Z,12.88
2023-04-25T21:20:55.439Z,12.90
2023-04-25T21:23:21.883Z,12.91
2023-04-25T21:25:48.309Z,12.92
2023-04-25T21:28:14.686Z,12.88
2023-04-25T21:30:41.191Z,12.86
2023-04-25T21:33:07.640Z,12.85
2023-04-25T21:35:34.104Z,12.84
2023-04-25T21:38:00.490Z,12.89
2023-04-25T21:40:26.918Z,12.93
2023-04-25T21:42:53.521Z,12.90
2023-04-25T21:45:20.189Z,12.92
2023-04-25T21:47:46.706Z,12.93
2023-04-25T21:50:13.173Z,12.93
2023-04-25T21:52:40.673Z,12.92
2023-04-25T21:55:07.155Z,12.94
2023-04-25T21:57:33.560Z,12.95
2023-04-25T21:59:59.977Z,12.90
2023-04-25T22:02:26.470Z,12.98
2023-04-25T22:04:53.085Z,12.99
2023-04-25T22:07:19.558Z,12.99
2023-04-25T22:09:54.259Z,12.98
2023-04-25T22:12:21.702Z,12.98
2023-04-25T22:14:48.193Z,13.00
2023-04-25T22:17:14.618Z,13.02
2023-04-25T22:19:43.802Z,13.02
2023-04-25T22:22:10.189Z,12.99
2023-04-25T22:24:36.684Z,12.96
2023-04-25T22:27:03.111Z,12.91
2023-04-25T22:29:29.471Z,12.89
2023-04-25T22:31:55.936Z,12.84
2023-04-25T22:34:22.371Z,12.81
2023-04-25T22:36:48.837Z,12.72
2023-04-25T22:39:15.218Z,12.68
2023-04-25T22:41:41.586Z,12.62
2023-04-25T22:44:07.981Z,12.66
2023-04-25T22:46:34.371Z,12.68
2023-04-25T22:49:00.774Z,12.71
2023-04-25T22:51:27.125Z,12.72
2023-04-25T22:53:55.729Z,12.73
2023-04-25T22:56:22.106Z,12.71
2023-04-25T22:58:48.630Z,12.71
2023-04-25T23:01:15.781Z,12.70
2023-04-25T23:03:44.080Z,12.71
2023-04-25T23:06:10.557Z,12.67
2023-04-25T23:08:36.935Z,12.68
2023-04-25T23:11:03.382Z,12.74
2023-04-25T23:13:29.758Z,12.73
2023-04-25T23:15:56.185Z,12.70
2023-04-25T23:18:22.566Z,12.66
2023-04-25T23:20:51.977Z,12.64
2023-04-25T23:23:18.428Z,12.38
2023-04-25T23:25:44.927Z,12.43
2023-04-25T23:28:11.307Z,12.41
2023-04-25T23:30:37.728Z,12.42
2023-04-25T23:33:04.226Z,12.40
2023-04-25T23:35:30.679Z,12.39
2023-04-25T23:37:57.400Z,12.40
2023-04-25T23:40:23.822Z,12.38
2023-04-25T23:42:50.212Z,12.38
2023-04-25T23:45:16.673Z,12.43
2023-04-25T23:47:43.222Z,12.41
2023-04-25T23:50:10.655Z,12.38
2023-04-25T23:52:37.022Z,12.44
2023-04-25T23:55:03.409Z,12.44
2023-04-25T23:57:29.790Z,12.41
2023-04-25T23:59:56.293Z,12.41
